createdAt,value
2022-10-27T00:02:21.226Z,101780.94
2022-10-27T00:04:49.289Z,101788.78
2022-10-27T00:07:17.147Z,101789.78
2022-10-27T00:09:44.947Z,101797.53
2022-10-27T00:12:14.235Z,101787.22
2022-10-27T00:14:42.401Z,101791.66
2022-10-27T00:17:10.230Z,101798.69
2022-10-27T00:19:38.060Z,101793.56
2022-10-27T00:22:05.901Z,101795.38
2022-10-27T00:24:33.765Z,101797.81
2022-10-27T00:27:01.583Z,101793.56
2022-10-27T00:29:31.803Z,101803.09
2022-10-27T00:31:59.783Z,101795.22
2022-10-27T00:34:27.744Z,101804.66
2022-10-27T00:36:55.781Z,101795.97
2022-10-27T00:39:23.760Z,101797.63
2022-10-27T00:41:51.671Z,101794.13
2022-10-27T00:44:34.314Z,101795.78
2022-10-27T00:47:05.418Z,101794.03
2022-10-27T00:49:38.133Z,101800.41
2022-10-27T00:52:08.504Z,101803.03
2022-10-27T00:54:39.843Z,101796.25
2022-10-27T00:57:08.824Z,101799.81
2022-10-27T00:59:38.757Z,101798.09
2022-10-27T01:02:07.788Z,101797.41
2022-10-27T01:04:39.620Z,101798.31
2022-10-27T01:07:07.699Z,101799.22
2022-10-27T01:09:35.651Z,101797.41
2022-10-27T01:12:03.440Z,101787.97
2022-10-27T01:14:31.504Z,101795.03
2022-10-27T01:17:11.545Z,101799.31
2022-10-27T01:19:59.926Z,101801.91
2022-10-27T01:22:30.313Z,101801.09
2022-10-27T01:25:05.061Z,101795.91
2022-10-27T01:27:45.792Z,101802.78
2022-10-27T01:30:15.546Z,101802.03
2022-10-27T01:32:57.424Z,101798.59
2022-10-27T01:35:31.612Z,101801.97
2022-10-27T01:38:04.797Z,101802.03
2022-10-27T01:40:36.861Z,101800.34
2022-10-27T01:43:08.738Z,101808.19
2022-10-27T01:45:39.080Z,101809.09
2022-10-27T01:48:09.440Z,101810.09
2022-10-27T01:50:56.845Z,101803.88
2022-10-27T01:53:27.670Z,101797.91
2022-10-27T01:56:03.837Z,101805.69
2022-10-27T01:58:49.405Z,101808.22
2022-10-27T02:01:27.637Z,101810.09
2022-10-27T02:04:01.340Z,101804.91
2022-10-27T02:06:32.873Z,101799.69
2022-10-27T02:09:04.625Z,101801.44
2022-10-27T02:11:34.858Z,101803.22
2022-10-27T02:14:02.944Z,101795.41
2022-10-27T02:16:33.657Z,101787.59
2022-10-27T02:19:06.551Z,101797.25
2022-10-27T02:21:34.353Z,101801.50
2022-10-27T02:24:02.200Z,101797.22
2022-10-27T02:26:33.591Z,101798.16
2022-10-27T02:29:03.523Z,101803.38
2022-10-27T02:31:34.525Z,101809.38
2022-10-27T02:34:04.157Z,101811.19
2022-10-27T02:36:32.396Z,101807.78
2022-10-27T02:39:00.225Z,101806.00
2022-10-27T02:41:28.086Z,101809.44
2022-10-27T02:43:56.019Z,101813.88
2022-10-27T02:46:23.851Z,101812.19
2022-10-27T02:48:51.706Z,101810.38
2022-10-27T02:51:20.913Z,101814.59
2022-10-27T02:53:48.703Z,101817.28
2022-10-27T02:56:16.553Z,101827.75
2022-10-27T02:58:44.485Z,101824.22
2022-10-27T03:01:12.504Z,101820.84
2022-10-27T03:03:40.427Z,101823.34
2022-10-27T03:06:08.327Z,101821.59
2022-10-27T03:08:37.509Z,101825.88
2022-10-27T03:11:05.450Z,101829.34
2022-10-27T03:13:33.328Z,101835.41
2022-10-27T03:16:01.137Z,101835.22
2022-10-27T03:18:29.043Z,101842.97
2022-10-27T03:20:56.936Z,101849.78
2022-10-27T03:23:24.886Z,101846.22
2022-10-27T03:25:57.859Z,101843.53
2022-10-27T03:28:30.141Z,101857.28
2022-10-27T03:30:58.112Z,101852.06
2022-10-27T03:33:25.971Z,101845.72
2022-10-27T03:35:53.828Z,101847.38
2022-10-27T03:38:21.726Z,101849.88
2022-10-27T03:40:49.568Z,101862.75
2022-10-27T03:43:18.816Z,101860.97
2022-10-27T03:45:48.820Z,101864.44
2022-10-27T03:48:17.091Z,101868.78
2022-10-27T03:50:47.086Z,101874.00
2022-10-27T03:53:15.281Z,101873.91
2022-10-27T03:55:43.200Z,101875.56
2022-10-27T03:58:16.443Z,101875.56
2022-10-27T04:00:47.406Z,101879.16
2022-10-27T04:03:15.371Z,101876.63
2022-10-27T04:05:43.194Z,101881.91
2022-10-27T04:08:11.137Z,101885.31
2022-10-27T04:10:39.112Z,101885.31
2022-10-27T04:13:06.930Z,101888.72
2022-10-27T04:15:34.854Z,101887.06
2022-10-27T04:18:04.318Z,101895.66
2022-10-27T04:20:32.441Z,101890.56
2022-10-27T04:23:00.706Z,101882.69
2022-10-27T04:25:28.630Z,101884.25
2022-10-27T04:28:02.077Z,101886.09
2022-10-27T04:30:30.001Z,101887.72
2022-10-27T04:32:58.318Z,101892.03
2022-10-27T04:35:27.730Z,101907.88
2022-10-27T04:37:56.410Z,101898.34
2022-10-27T04:40:24.454Z,101905.31
2022-10-27T04:42:52.333Z,101906.19
2022-10-27T04:45:20.316Z,101917.56
2022-10-27T04:47:48.355Z,101917.50
2022-10-27T04:50:17.314Z,101914.91
2022-10-27T04:52:55.345Z,101906.19
2022-10-27T04:55:23.538Z,101915.88
2022-10-27T04:57:51.451Z,101921.13
2022-10-27T05:00:19.644Z,101917.72
2022-10-27T05:02:53.934Z,101921.97
2022-10-27T05:05:22.616Z,101926.34
2022-10-27T05:07:55.833Z,101924.56
2022-10-27T05:10:23.984Z,101918.56
2022-10-27T05:12:52.445Z,101919.44
2022-10-27T05:15:20.914Z,101921.03
2022-10-27T05:17:49.176Z,101909.75
2022-10-27T05:20:17.591Z,101909.91
2022-10-27T05:22:45.498Z,101913.19
2022-10-27T05:25:14.799Z,101909.88
2022-10-27T05:27:42.632Z,101918.69
2022-10-27T05:30:13.062Z,101923.97
2022-10-27T05:32:45.091Z,101923.16
2022-10-27T05:35:15.486Z,101921.59
2022-10-27T05:37:45.469Z,101925.06
2022-10-27T05:40:15.590Z,101934.59
2022-10-27T05:42:51.251Z,101935.63
2022-10-27T05:45:20.121Z,101936.72
2022-10-27T05:47:48.019Z,101932.50
2022-10-27T05:50:16.066Z,101939.63
2022-10-27T05:52:47.002Z,101939.69
2022-10-27T05:55:16.440Z,101938.84
2022-10-27T05:57:44.291Z,101946.78
2022-10-27T06:00:12.562Z,101945.94
2022-10-27T06:02:40.465Z,101949.41
2022-10-27T06:05:09.004Z,101946.00
2022-10-27T06:07:36.879Z,101949.47
2022-10-27T06:10:05.337Z,101947.72
2022-10-27T06:12:34.615Z,101945.13
2022-10-27T06:15:02.696Z,101939.97
2022-10-27T06:17:30.582Z,101946.00
2022-10-27T06:19:58.455Z,101951.16
2022-10-27T06:22:26.240Z,101941.59
2022-10-27T06:24:54.128Z,101942.41
2022-10-27T06:27:21.946Z,101941.47
2022-10-27T06:29:51.191Z,101936.22
2022-10-27T06:32:19.053Z,101931.81
2022-10-27T06:34:47.023Z,101944.78
2022-10-27T06:37:14.819Z,101942.13
2022-10-27T06:39:42.954Z,101939.50
2022-10-27T06:42:10.841Z,101940.25
2022-10-27T06:44:40.488Z,101941.13
2022-10-27T06:47:09.761Z,101938.50
2022-10-27T06:49:37.643Z,101937.72
2022-10-27T06:52:05.840Z,101946.50
2022-10-27T06:54:33.698Z,101947.41
2022-10-27T06:57:01.555Z,101950.88
2022-10-27T06:59:29.438Z,101953.47
2022-10-27T07:01:57.390Z,101950.84
2022-10-27T07:04:26.671Z,101951.69
2022-10-27T07:06:54.530Z,101953.34
2022-10-27T07:09:22.450Z,101958.50
2022-10-27T07:11:50.244Z,101963.69
2022-10-27T07:14:18.088Z,101967.19
2022-10-27T07:16:45.869Z,101962.84
2022-10-27T07:19:13.760Z,101965.44
2022-10-27T07:21:43.100Z,101973.25
2022-10-27T07:24:14.387Z,101984.56
2022-10-27T07:26:42.563Z,101979.22
2022-10-27T07:29:10.401Z,101980.00
2022-10-27T07:31:39.027Z,101985.16
2022-10-27T07:34:06.952Z,101981.69
2022-10-27T07:36:34.814Z,101986.84
2022-10-27T07:39:04.833Z,101996.28
2022-10-27T07:41:32.724Z,102004.00
2022-10-27T07:44:00.602Z,102007.25
2022-10-27T07:46:28.509Z,102009.75
2022-10-27T07:48:56.379Z,102020.25
2022-10-27T07:51:24.331Z,102018.41
2022-10-27T07:53:55.520Z,102020.91
2022-10-27T07:56:27.237Z,102021.56
2022-10-27T07:58:55.111Z,102027.41
2022-10-27T08:01:23.057Z,102032.56
2022-10-27T08:03:51.932Z,102037.56
2022-10-27T08:06:20.590Z,102027.84
2022-10-27T08:08:48.654Z,102036.53
2022-10-27T08:11:16.538Z,102042.72
2022-10-27T08:13:45.902Z,102037.25
2022-10-27T08:16:13.808Z,102041.22
2022-10-27T08:18:41.770Z,102032.53
2022-10-27T08:21:09.637Z,102047.28
2022-10-27T08:23:38.454Z,102044.63
2022-10-27T08:26:06.516Z,102043.63
2022-10-27T08:28:34.347Z,102051.44
2022-10-27T08:31:03.637Z,102046.25
2022-10-27T08:33:31.613Z,102056.91
2022-10-27T08:36:02.214Z,102060.16
2022-10-27T08:38:32.830Z,102067.31
2022-10-27T08:41:24.064Z,102056.81
2022-10-27T08:44:10.548Z,102065.28
2022-10-27T08:46:44.220Z,102058.34
2022-10-27T08:49:20.816Z,102061.34
2022-10-27T08:51:49.604Z,102067.16
2022-10-27T08:54:17.462Z,102071.38
2022-10-27T08:56:45.963Z,102077.38
2022-10-27T08:59:16.213Z,102073.13
2022-10-27T09:01:49.841Z,102080.28
2022-10-27T09:04:25.647Z,102079.56
2022-10-27T09:07:03.827Z,102076.97
2022-10-27T09:09:36.433Z,102083.63
2022-10-27T09:12:12.155Z,102077.59
2022-10-27T09:15:04.439Z,102082.13
2022-10-27T09:17:35.682Z,102091.16
2022-10-27T09:20:07.717Z,102091.75
2022-10-27T09:22:39.104Z,102094.84
2022-10-27T09:25:15.205Z,102097.88
2022-10-27T09:27:43.734Z,102098.41
2022-10-27T09:30:14.025Z,102098.28
2022-10-27T09:32:47.614Z,102093.47
2022-10-27T09:35:18.996Z,102095.53
2022-10-27T09:37:49.220Z,102088.88
2022-10-27T09:40:19.019Z,102091.94
2022-10-27T09:42:48.120Z,102095.91
2022-10-27T09:45:17.948Z,102099.06
2022-10-27T09:47:50.039Z,102091.75
2022-10-27T09:50:20.608Z,102097.41
2022-10-27T09:52:48.761Z,102101.03
2022-10-27T09:55:17.665Z,102099.19
2022-10-27T09:57:47.455Z,102093.84
2022-10-27T10:00:27.029Z,102103.88
2022-10-27T10:05:32.617Z,102100.97
2022-10-27T10:08:14.263Z,102104.56
2022-10-27T10:10:54.846Z,102112.66
2022-10-27T10:13:23.769Z,102109.13
2022-10-27T10:16:07.393Z,102119.38
2022-10-27T10:18:37.074Z,102129.16
2022-10-27T10:21:06.368Z,102133.72
2022-10-27T10:23:36.054Z,102142.59
2022-10-27T10:26:06.960Z,102139.50
2022-10-27T10:28:36.487Z,102132.56
2022-10-27T10:31:06.872Z,102148.97
2022-10-27T10:33:37.846Z,102142.47
2022-10-27T10:36:19.563Z,102140.38
2022-10-27T10:38:51.673Z,102148.72
2022-10-27T10:41:21.156Z,102140.28
2022-10-27T10:44:09.211Z,102138.25
2022-10-27T10:46:37.889Z,102137.06
2022-10-27T10:49:07.947Z,102141.28
2022-10-27T10:51:36.913Z,102137.41
2022-10-27T10:54:08.194Z,102145.53
2022-10-27T10:56:37.541Z,102143.16
2022-10-27T10:59:08.962Z,102152.44
2022-10-27T11:01:45.929Z,102148.72
2022-10-27T11:04:18.056Z,102158.88
2022-10-27T11:07:00.439Z,102155.50
2022-10-27T11:09:30.293Z,102158.16
2022-10-27T11:11:58.454Z,102166.38
2022-10-27T11:14:26.951Z,102156.59
2022-10-27T11:17:00.245Z,102168.38
2022-10-27T11:19:36.363Z,102161.88
2022-10-27T11:22:06.875Z,102165.03
2022-10-27T11:24:40.638Z,102147.59
2022-10-27T11:27:13.993Z,102149.41
2022-10-27T11:29:46.239Z,102152.16
2022-10-27T11:32:17.947Z,102150.03
2022-10-27T11:34:51.634Z,102149.38
2022-10-27T11:37:23.574Z,102153.09
2022-10-27T11:39:55.338Z,102146.09
2022-10-27T11:42:29.010Z,102139.94
2022-10-27T11:45:04.515Z,102137.47
2022-10-27T11:47:34.788Z,102139.34
2022-10-27T11:50:07.236Z,102143.63
2022-10-27T11:52:37.954Z,102134.19
2022-10-27T11:55:08.034Z,102128.28
2022-10-27T11:57:43.205Z,102127.28
2022-10-27T12:00:16.793Z,102127.72
2022-10-27T12:03:21.215Z,102126.13
2022-10-27T12:05:54.795Z,102136.66
2022-10-27T12:11:09.374Z,102133.34
2022-10-27T12:13:42.848Z,102125.81
2022-10-27T12:16:16.703Z,102126.75
2022-10-27T12:18:45.431Z,102131.00
2022-10-27T12:21:20.471Z,102121.19
2022-10-27T12:23:54.335Z,102127.75
2022-10-27T12:26:26.885Z,102121.69
2022-10-27T12:28:55.836Z,102116.88
2022-10-27T12:31:26.688Z,102109.59
2022-10-27T12:33:57.294Z,102114.25
2022-10-27T12:39:09.347Z,102111.56
2022-10-27T12:41:41.836Z,102098.84
2022-10-27T12:44:18.552Z,102103.41
2022-10-27T12:47:02.730Z,102103.16
2022-10-27T12:49:36.775Z,102094.47
2022-10-27T12:52:12.071Z,102092.06
2022-10-27T12:54:52.629Z,102091.63
2022-10-27T12:57:32.602Z,102091.97
2022-10-27T13:00:06.382Z,102099.69
2022-10-27T13:02:37.370Z,102104.00
2022-10-27T13:05:26.822Z,102096.78
2022-10-27T13:08:16.728Z,102105.53
2022-10-27T13:11:01.913Z,102114.16
2022-10-27T13:13:57.941Z,102114.22
2022-10-27T13:16:33.267Z,102105.28
2022-10-27T13:19:25.175Z,102114.00
2022-10-27T13:21:57.621Z,102105.50
2022-10-27T13:24:32.055Z,102101.03
2022-10-27T13:27:03.789Z,102096.13
2022-10-27T13:29:38.430Z,102102.47
2022-10-27T13:32:32.869Z,102092.91
2022-10-27T13:35:35.751Z,102078.66
2022-10-27T13:38:22.383Z,102084.22
2022-10-27T13:40:52.883Z,102086.25
2022-10-27T13:43:49.112Z,102081.06
2022-10-27T13:46:19.421Z,102068.03
2022-10-27T13:48:49.054Z,102056.00
2022-10-27T13:51:48.503Z,102056.16
2022-10-27T13:54:52.070Z,102052.91
2022-10-27T13:57:44.600Z,102046.25
2022-10-27T14:00:15.129Z,102054.72
2022-10-27T14:02:55.033Z,102041.97
2022-10-27T14:05:34.333Z,102029.69
2022-10-27T14:08:02.571Z,102036.44
2022-10-27T14:10:30.932Z,102029.19
2022-10-27T14:13:00.245Z,102020.34
2022-10-27T14:15:29.541Z,102016.72
2022-10-27T14:17:58.151Z,102026.28
2022-10-27T14:20:28.784Z,102014.44
2022-10-27T14:23:03.915Z,102018.28
2022-10-27T14:25:32.737Z,102024.41
2022-10-27T14:28:15.299Z,102012.69
2022-10-27T14:30:43.588Z,102013.72
2022-10-27T14:33:18.939Z,102010.09
2022-10-27T14:35:46.846Z,102007.69
2022-10-27T14:38:16.710Z,102011.00
2022-10-27T14:40:44.531Z,102003.63
2022-10-27T14:43:20.166Z,102005.63
2022-10-27T14:45:50.551Z,102010.19
2022-10-27T14:48:25.390Z,102002.72
2022-10-27T14:50:54.144Z,102000.13
2022-10-27T14:53:27.276Z,101988.16
2022-10-27T14:56:07.467Z,101988.94
2022-10-27T14:58:36.782Z,101990.91
2022-10-27T15:01:04.719Z,101985.94
2022-10-27T15:03:35.844Z,101982.00
2022-10-27T15:06:03.919Z,101978.72
2022-10-27T15:08:36.185Z,101982.31
2022-10-27T15:11:07.231Z,101979.72
2022-10-27T15:13:36.691Z,101985.16
2022-10-27T15:16:11.487Z,101984.97
2022-10-27T15:18:41.394Z,101983.69
2022-10-27T15:21:11.478Z,101986.56
2022-10-27T15:23:42.105Z,101974.25
2022-10-27T15:26:13.958Z,101986.94
2022-10-27T15:28:43.496Z,101972.16
2022-10-27T15:31:11.557Z,101972.19
2022-10-27T15:33:41.381Z,101972.41
2022-10-27T15:36:19.005Z,101972.44
2022-10-27T15:38:50.154Z,101965.66
2022-10-27T15:41:21.683Z,101964.06
2022-10-27T15:43:52.106Z,101962.31
2022-10-27T15:46:30.880Z,101960.88
2022-10-27T15:49:23.615Z,101956.59
2022-10-27T15:51:53.148Z,101956.63
2022-10-27T15:54:31.850Z,101957.53
2022-10-27T15:56:59.875Z,101952.44
2022-10-27T15:59:29.860Z,101944.34
2022-10-27T16:02:01.429Z,101939.50
2022-10-27T16:04:31.822Z,101933.75
2022-10-27T16:07:31.620Z,101939.16
2022-10-27T16:09:59.774Z,101927.06
2022-10-27T16:12:38.246Z,101933.34
2022-10-27T16:15:16.773Z,101934.59
2022-10-27T16:17:46.947Z,101929.44
2022-10-27T16:20:18.007Z,101926.94
2022-10-27T16:22:46.040Z,101922.00
2022-10-27T16:25:14.096Z,101938.00
2022-10-27T16:27:42.189Z,101928.56
2022-10-27T16:30:16.922Z,101933.16
2022-10-27T16:32:46.025Z,101937.63
2022-10-27T16:35:14.886Z,101936.03
2022-10-27T16:37:42.823Z,101938.69
2022-10-27T16:40:13.549Z,101931.03
2022-10-27T16:42:44.387Z,101938.22
2022-10-27T16:45:15.058Z,101936.72
2022-10-27T16:47:43.397Z,101939.34
2022-10-27T16:50:11.681Z,101936.03
2022-10-27T16:52:39.822Z,101935.19
2022-10-27T16:55:10.060Z,101936.75
2022-10-27T16:57:38.148Z,101923.94
2022-10-27T17:00:07.480Z,101929.81
2022-10-27T17:02:36.850Z,101928.03
2022-10-27T17:05:05.048Z,101924.50
2022-10-27T17:07:32.981Z,101926.28
2022-10-27T17:10:00.975Z,101928.91
2022-10-27T17:12:29.134Z,101922.94
2022-10-27T17:14:56.997Z,101921.16
2022-10-27T17:17:25.027Z,101920.41
2022-10-27T17:19:54.238Z,101919.44
2022-10-27T17:22:22.134Z,101919.59
2022-10-27T17:24:50.021Z,101913.56
2022-10-27T17:27:17.887Z,101903.91
2022-10-27T17:29:46.916Z,101901.38
2022-10-27T17:32:15.421Z,101902.34
2022-10-27T17:34:43.443Z,101899.00
2022-10-27T17:37:13.989Z,101903.25
2022-10-27T17:39:41.924Z,101908.66
2022-10-27T17:42:10.261Z,101906.25
2022-10-27T17:44:38.154Z,101903.53
2022-10-27T17:47:07.394Z,101901.78
2022-10-27T17:49:35.318Z,101909.59
2022-10-27T17:52:03.343Z,101909.53
2022-10-27T17:54:32.579Z,101914.84
2022-10-27T17:57:00.478Z,101895.78
2022-10-27T17:59:28.565Z,101896.66
2022-10-27T18:01:56.500Z,101894.91
2022-10-27T18:04:24.466Z,101887.09
2022-10-27T18:06:52.358Z,101901.22
2022-10-27T18:09:20.357Z,101890.66
2022-10-27T18:11:49.594Z,101898.53
2022-10-27T18:14:19.300Z,101894.00
2022-10-27T18:16:47.520Z,101891.44
2022-10-27T18:19:16.903Z,101886.47
2022-10-27T18:21:46.180Z,101879.53
2022-10-27T18:24:15.674Z,101874.19
2022-10-27T18:26:45.824Z,101872.69
2022-10-27T18:29:17.001Z,101874.63
2022-10-27T18:31:46.772Z,101875.63
2022-10-27T18:34:15.780Z,101873.66
2022-10-27T18:36:45.382Z,101882.25
2022-10-27T18:39:16.695Z,101868.56
2022-10-27T18:41:45.289Z,101873.94
2022-10-27T18:44:14.831Z,101870.53
2022-10-27T18:46:42.666Z,101863.69
2022-10-27T18:49:16.090Z,101855.84
2022-10-27T18:51:53.170Z,101855.06
2022-10-27T18:54:21.176Z,101855.06
2022-10-27T18:56:49.256Z,101854.16
2022-10-27T18:59:18.570Z,101849.09
2022-10-27T19:01:47.653Z,101844.84
2022-10-27T19:04:15.878Z,101846.41
2022-10-27T19:06:43.879Z,101852.63
2022-10-27T19:09:12.593Z,101853.53
2022-10-27T19:11:40.513Z,101855.34
2022-10-27T19:14:08.455Z,101847.41
2022-10-27T19:16:38.197Z,101845.69
2022-10-27T19:19:06.361Z,101849.13
2022-10-27T19:21:34.388Z,101848.28
2022-10-27T19:24:03.040Z,101844.78
2022-10-27T19:26:32.347Z,101838.63
2022-10-27T19:29:00.726Z,101843.06
2022-10-27T19:31:30.824Z,101837.91
2022-10-27T19:34:00.410Z,101843.28
2022-10-27T19:36:29.756Z,101840.63
2022-10-27T19:38:58.487Z,101826.63
2022-10-27T19:41:28.891Z,101832.00
2022-10-27T19:43:57.059Z,101825.97
2022-10-27T19:46:26.034Z,101830.50
2022-10-27T19:48:54.644Z,101824.50
2022-10-27T19:51:26.069Z,101821.78
2022-10-27T19:53:56.374Z,101820.09
2022-10-27T19:56:25.521Z,101821.00
2022-10-27T19:58:54.349Z,101814.91
2022-10-27T20:01:23.916Z,101812.41
2022-10-27T20:03:52.995Z,101811.63
2022-10-27T20:06:21.090Z,101806.41
2022-10-27T20:08:55.831Z,101811.66
2022-10-27T20:11:26.104Z,101806.41
2022-10-27T20:13:55.480Z,101800.41
2022-10-27T20:16:25.299Z,101803.06
2022-10-27T20:18:53.542Z,101797.69
2022-10-27T20:21:21.602Z,101803.81
2022-10-27T20:23:50.991Z,101815.09
2022-10-27T20:26:34.404Z,101809.81
2022-10-27T20:29:02.162Z,101813.31
2022-10-27T20:31:30.353Z,101812.47
2022-10-27T20:33:58.947Z,101802.69
2022-10-27T20:36:27.484Z,101801.72
2022-10-27T20:38:57.600Z,101796.47
2022-10-27T20:41:27.819Z,101783.41
2022-10-27T20:43:56.181Z,101786.97
2022-10-27T20:46:29.065Z,101788.72
2022-10-27T20:48:58.213Z,101786.84
2022-10-27T20:51:27.779Z,101789.38
2022-10-27T20:53:57.102Z,101788.50
2022-10-27T20:56:26.698Z,101775.47
2022-10-27T20:58:54.799Z,101770.31
2022-10-27T21:01:28.819Z,101770.97
2022-10-27T21:03:57.871Z,101763.09
2022-10-27T21:06:27.179Z,101763.09
2022-10-27T21:08:55.645Z,101763.91
2022-10-27T21:11:25.209Z,101764.56
2022-10-27T21:13:54.466Z,101756.75
2022-10-27T21:16:22.826Z,101759.31
2022-10-27T21:18:51.351Z,101754.13
2022-10-27T21:21:19.986Z,101759.44
2022-10-27T21:23:48.369Z,101752.47
2022-10-27T21:26:16.584Z,101749.75
2022-10-27T21:28:49.730Z,101749.56
2022-10-27T21:31:17.582Z,101742.72
2022-10-27T21:33:45.537Z,101740.75
2022-10-27T21:36:13.834Z,101736.34
2022-10-27T21:38:42.652Z,101724.16
2022-10-27T21:41:12.037Z,101741.56
2022-10-27T21:43:41.350Z,101740.75
2022-10-27T21:46:12.197Z,101738.03
2022-10-27T21:48:40.113Z,101739.91
2022-10-27T21:51:08.360Z,101744.09
2022-10-27T21:53:36.199Z,101749.25
2022-10-27T21:56:05.904Z,101741.47
2022-10-27T21:58:35.963Z,101733.50
2022-10-27T22:01:08.199Z,101729.84
2022-10-27T22:03:37.976Z,101726.50
2022-10-27T22:06:06.823Z,101717.66
2022-10-27T22:08:36.032Z,101714.84
2022-10-27T22:11:04.783Z,101717.66
2022-10-27T22:13:33.001Z,101708.13
2022-10-27T22:16:07.768Z,101706.16
2022-10-27T22:18:37.419Z,101706.16
2022-10-27T22:21:06.032Z,101701.13
2022-10-27T22:23:33.931Z,101699.03
2022-10-27T22:26:05.756Z,101701.00
2022-10-27T22:28:33.891Z,101710.69
2022-10-27T22:31:06.177Z,101707.16
2022-10-27T22:33:34.498Z,101702.78
2022-10-27T22:36:04.641Z,101705.53
2022-10-27T22:38:32.906Z,101707.34
2022-10-27T22:41:01.784Z,101697.09
2022-10-27T22:43:29.790Z,101699.69
2022-10-27T22:45:57.773Z,101692.97
2022-10-27T22:48:26.175Z,101689.59
2022-10-27T22:51:00.367Z,101686.09
2022-10-27T22:53:31.678Z,101684.38
2022-10-27T22:56:04.404Z,101686.38
2022-10-27T22:58:32.319Z,101683.84
2022-10-27T23:01:05.168Z,101686.50
2022-10-27T23:03:32.866Z,101685.59
2022-10-27T23:06:01.490Z,101684.78
2022-10-27T23:08:30.843Z,101674.34
2022-10-27T23:10:59.893Z,101669.03
2022-10-27T23:13:28.998Z,101660.22
2022-10-27T23:15:57.558Z,101657.63
2022-10-27T23:18:26.133Z,101656.03
2022-10-27T23:20:56.236Z,101649.88
2022-10-27T23:23:24.072Z,101643.06
2022-10-27T23:25:53.482Z,101649.06
2022-10-27T23:28:22.154Z,101648.25
2022-10-27T23:30:50.156Z,101644.78
2022-10-27T23:33:18.538Z,101634.25
2022-10-27T23:35:56.425Z,101640.84
2022-10-27T23:40:59.666Z,101636.69
2022-10-27T23:43:28.882Z,101643.66
2022-10-27T23:46:01.388Z,101652.19
2022-10-27T23:48:30.074Z,101661.00
2022-10-27T23:50:58.161Z,101654.97
2022-10-27T23:53:26.544Z,101654.88
2022-10-27T23:55:55.807Z,101646.38
2022-10-27T23:58:25.461Z,101645.56
